sensor_id;sensor_type;location;lat;lon;timestamp;pressure;altitude;pressure_sealevel;temperature;humidity
76660;BME280;65579;45.534;6.212;2023-07-20T00:02:23;98182.75;;;25.61;30.32
76660;BME280;65579;45.534;6.212;2023-07-20T00:04:49;98184.90;;;24.50;32.47
76660;BME280;65579;45.534;6.212;2023-07-20T00:07:15;98183.99;;;24.85;31.61
76660;BME280;65579;45.534;6.212;2023-07-20T00:09:40;98183.67;;;24.32;32.33
76660;BME280;65579;45.534;6.212;2023-07-20T00:12:07;98184.87;;;23.71;33.77
76660;BME280;65579;45.534;6.212;2023-07-20T00:14:32;98183.59;;;23.54;34.00
76660;BME280;65579;45.534;6.212;2023-07-20T00:16:58;98177.49;;;23.66;33.57
76660;BME280;65579;45.534;6.212;2023-07-20T00:22:04;98188.38;;;24.00;32.91
76660;BME280;65579;45.534;6.212;2023-07-20T00:24:15;98188.29;;;24.30;32.82
76660;BME280;65579;45.534;6.212;2023-07-20T00:26:41;98190.58;;;24.95;32.06
76660;BME280;65579;45.534;6.212;2023-07-20T00:29:07;98189.76;;;24.97;31.92
76660;BME280;65579;45.534;6.212;2023-07-20T00:31:33;98192.01;;;25.49;31.63
76660;BME280;65579;45.534;6.212;2023-07-20T00:33:58;98192.34;;;25.20;31.89
76660;BME280;65579;45.534;6.212;2023-07-20T00:36:24;98191.51;;;23.86;32.22
76660;BME280;65579;45.534;6.212;2023-07-20T00:38:50;98190.22;;;24.17;33.03
76660;BME280;65579;45.534;6.212;2023-07-20T00:41:16;98195.79;;;21.19;38.11
76660;BME280;65579;45.534;6.212;2023-07-20T00:43:41;98196.11;;;19.68;41.24
76660;BME280;65579;45.534;6.212;2023-07-20T00:46:07;98193.69;;;21.96;37.93
76660;BME280;65579;45.534;6.212;2023-07-20T00:48:32;98194.81;;;22.38;37.09
76660;BME280;65579;45.534;6.212;2023-07-20T00:51:00;98195.14;;;23.78;34.93
76660;BME280;65579;45.534;6.212;2023-07-20T00:53:24;98193.06;;;23.60;35.61
76660;BME280;65579;45.534;6.212;2023-07-20T00:55:50;98190.71;;;24.01;34.85
76660;BME280;65579;45.534;6.212;2023-07-20T00:58:15;98188.44;;;24.25;34.62
76660;BME280;65579;45.534;6.212;2023-07-20T01:00:40;98188.78;;;23.87;35.02
76660;BME280;65579;45.534;6.212;2023-07-20T01:03:06;98185.11;;;24.40;34.17
76660;BME280;65579;45.534;6.212;2023-07-20T01:05:39;98188.90;;;24.05;34.41
76660;BME280;65579;45.534;6.212;2023-07-20T01:08:00;98184.10;;;24.28;34.52
76660;BME280;65579;45.534;6.212;2023-07-20T01:10:29;98188.47;;;24.06;34.86
76660;BME280;65579;45.534;6.212;2023-07-20T01:12:52;98188.32;;;23.66;35.67
76660;BME280;65579;45.534;6.212;2023-07-20T01:15:15;98189.40;;;22.97;36.77
76660;BME280;65579;45.534;6.212;2023-07-20T01:17:41;98186.86;;;23.59;35.27
76660;BME280;65579;45.534;6.212;2023-07-20T01:20:10;98188.08;;;23.64;35.08
76660;BME280;65579;45.534;6.212;2023-07-20T01:22:48;98187.87;;;24.05;34.61
76660;BME280;65579;45.534;6.212;2023-07-20T01:25:12;98189.13;;;23.84;34.49
76660;BME280;65579;45.534;6.212;2023-07-20T01:30:08;98193.71;;;23.92;33.57
76660;BME280;65579;45.534;6.212;2023-07-20T01:32:17;98187.77;;;24.23;32.33
76660;BME280;65579;45.534;6.212;2023-07-20T01:34:42;98190.13;;;24.12;33.69
76660;BME280;65579;45.534;6.212;2023-07-20T01:37:08;98189.54;;;22.42;35.56
76660;BME280;65579;45.534;6.212;2023-07-20T01:39:35;98186.08;;;18.65;43.24
76660;BME280;65579;45.534;6.212;2023-07-20T01:41:59;98193.04;;;19.05;44.58
76660;BME280;65579;45.534;6.212;2023-07-20T01:44:25;98189.00;;;17.72;47.55
76660;BME280;65579;45.534;6.212;2023-07-20T01:46:51;98191.99;;;17.82;47.63
76660;BME280;65579;45.534;6.212;2023-07-20T01:49:16;98187.00;;;16.11;50.72
76660;BME280;65579;45.534;6.212;2023-07-20T01:51:42;98185.89;;;19.84;43.96
76660;BME280;65579;45.534;6.212;2023-07-20T01:54:07;98181.62;;;21.27;40.82
76660;BME280;65579;45.534;6.212;2023-07-20T01:56:32;98180.38;;;22.05;38.28
76660;BME280;65579;45.534;6.212;2023-07-20T01:58:58;98186.35;;;18.85;43.95
76660;BME280;65579;45.534;6.212;2023-07-20T02:01:23;98183.90;;;20.80;40.54
76660;BME280;65579;45.534;6.212;2023-07-20T02:03:49;98181.67;;;20.90;41.45
76660;BME280;65579;45.534;6.212;2023-07-20T02:06:15;98176.05;;;21.44;39.73
76660;BME280;65579;45.534;6.212;2023-07-20T02:08:41;98174.05;;;22.33;38.29
76660;BME280;65579;45.534;6.212;2023-07-20T02:11:07;98174.47;;;22.84;37.40
76660;BME280;65579;45.534;6.212;2023-07-20T02:13:33;98170.27;;;22.89;37.39
76660;BME280;65579;45.534;6.212;2023-07-20T02:15:58;98171.88;;;22.71;37.18
76660;BME280;65579;45.534;6.212;2023-07-20T02:18:24;98173.71;;;22.85;37.40
76660;BME280;65579;45.534;6.212;2023-07-20T02:20:53;98174.07;;;23.00;37.39
76660;BME280;65579;45.534;6.212;2023-07-20T02:23:16;98173.44;;;23.06;37.21
76660;BME280;65579;45.534;6.212;2023-07-20T02:25:42;98172.55;;;22.23;38.39
76660;BME280;65579;45.534;6.212;2023-07-20T02:28:08;98174.90;;;22.42;38.06
76660;BME280;65579;45.534;6.212;2023-07-20T02:30:33;98175.59;;;22.41;38.51
76660;BME280;65579;45.534;6.212;2023-07-20T02:32:59;98175.90;;;22.54;38.19
76660;BME280;65579;45.534;6.212;2023-07-20T02:35:25;98177.54;;;22.19;38.42
76660;BME280;65579;45.534;6.212;2023-07-20T02:37:51;98179.78;;;22.21;37.69
76660;BME280;65579;45.534;6.212;2023-07-20T02:40:17;98175.36;;;22.78;38.32
76660;BME280;65579;45.534;6.212;2023-07-20T02:42:42;98177.46;;;22.02;38.90
76660;BME280;65579;45.534;6.212;2023-07-20T02:45:08;98176.87;;;21.05;40.09
76660;BME280;65579;45.534;6.212;2023-07-20T02:47:32;98179.23;;;21.14;40.23
76660;BME280;65579;45.534;6.212;2023-07-20T02:49:57;98180.99;;;22.09;39.46
76660;BME280;65579;45.534;6.212;2023-07-20T02:52:22;98186.58;;;20.73;42.05
76660;BME280;65579;45.534;6.212;2023-07-20T02:54:47;98188.67;;;21.51;39.81
76660;BME280;65579;45.534;6.212;2023-07-20T02:57:12;98189.42;;;22.13;39.15
76660;BME280;65579;45.534;6.212;2023-07-20T02:59:37;98191.05;;;22.09;38.80
76660;BME280;65579;45.534;6.212;2023-07-20T03:02:02;98191.94;;;22.61;38.31
76660;BME280;65579;45.534;6.212;2023-07-20T03:04:27;98197.43;;;22.01;38.39
76660;BME280;65579;45.534;6.212;2023-07-20T03:06:53;98197.03;;;22.40;37.83
76660;BME280;65579;45.534;6.212;2023-07-20T03:09:19;98197.64;;;21.87;38.71
76660;BME280;65579;45.534;6.212;2023-07-20T03:11:43;98192.58;;;22.24;39.27
76660;BME280;65579;45.534;6.212;2023-07-20T03:14:08;98191.93;;;21.97;38.65
76660;BME280;65579;45.534;6.212;2023-07-20T03:16:34;98192.27;;;22.20;37.86
76660;BME280;65579;45.534;6.212;2023-07-20T03:19:00;98189.59;;;21.99;38.36
76660;BME280;65579;45.534;6.212;2023-07-20T03:21:24;98185.29;;;22.19;38.24
76660;BME280;65579;45.534;6.212;2023-07-20T03:23:49;98185.35;;;21.37;39.71
76660;BME280;65579;45.534;6.212;2023-07-20T03:26:14;98184.92;;;21.68;38.98
76660;BME280;65579;45.534;6.212;2023-07-20T03:28:39;98189.72;;;21.67;39.82
76660;BME280;65579;45.534;6.212;2023-07-20T03:31:05;98192.75;;;21.28;41.03
76660;BME280;65579;45.534;6.212;2023-07-20T03:33:29;98195.81;;;21.64;40.27
76660;BME280;65579;45.534;6.212;2023-07-20T03:35:54;98201.16;;;21.15;40.16
76660;BME280;65579;45.534;6.212;2023-07-20T03:38:20;98203.34;;;21.54;39.93
76660;BME280;65579;45.534;6.212;2023-07-20T03:40:49;98202.71;;;21.89;39.59
76660;BME280;65579;45.534;6.212;2023-07-20T03:43:09;98203.67;;;21.93;38.99
76660;BME280;65579;45.534;6.212;2023-07-20T03:45:34;98203.11;;;21.37;40.22
76660;BME280;65579;45.534;6.212;2023-07-20T03:47:59;98201.13;;;21.75;39.56
76660;BME280;65579;45.534;6.212;2023-07-20T03:50:24;98201.59;;;21.66;38.85
76660;BME280;65579;45.534;6.212;2023-07-20T03:52:49;98204.29;;;21.84;38.86
76660;BME280;65579;45.534;6.212;2023-07-20T03:55:15;98200.16;;;22.01;39.22
76660;BME280;65579;45.534;6.212;2023-07-20T03:57:40;98199.28;;;21.75;39.40
76660;BME280;65579;45.534;6.212;2023-07-20T04:00:06;98199.40;;;21.59;39.76
76660;BME280;65579;45.534;6.212;2023-07-20T04:02:30;98202.40;;;21.10;40.69
76660;BME280;65579;45.534;6.212;2023-07-20T04:04:55;98203.62;;;21.38;40.27
76660;BME280;65579;45.534;6.212;2023-07-20T04:07:20;98205.50;;;21.50;40.07
76660;BME280;65579;45.534;6.212;2023-07-20T04:09:45;98202.78;;;21.55;40.05
76660;BME280;65579;45.534;6.212;2023-07-20T04:12:10;98202.65;;;21.32;40.27
76660;BME280;65579;45.534;6.212;2023-07-20T04:14:35;98207.09;;;20.60;41.47
76660;BME280;65579;45.534;6.212;2023-07-20T04:17:00;98205.90;;;21.07;40.51
76660;BME280;65579;45.534;6.212;2023-07-20T04:19:26;98207.90;;;20.91;40.93
76660;BME280;65579;45.534;6.212;2023-07-20T04:21:51;98205.16;;;21.59;40.25
76660;BME280;65579;45.534;6.212;2023-07-20T04:24:16;98202.20;;;21.62;39.74
76660;BME280;65579;45.534;6.212;2023-07-20T04:26:41;98204.03;;;21.67;38.91
76660;BME280;65579;45.534;6.212;2023-07-20T04:29:06;98204.75;;;21.06;39.76
76660;BME280;65579;45.534;6.212;2023-07-20T04:31:32;98202.39;;;21.39;40.05
76660;BME280;65579;45.534;6.212;2023-07-20T04:33:57;98205.38;;;21.67;39.50
76660;BME280;65579;45.534;6.212;2023-07-20T04:36:23;98204.55;;;21.66;39.63
76660;BME280;65579;45.534;6.212;2023-07-20T04:38:48;98207.63;;;21.55;39.60
76660;BME280;65579;45.534;6.212;2023-07-20T04:41:13;98210.22;;;20.87;41.19
76660;BME280;65579;45.534;6.212;2023-07-20T04:43:41;98211.96;;;21.01;40.62
76660;BME280;65579;45.534;6.212;2023-07-20T04:46:03;98209.69;;;21.45;40.14
76660;BME280;65579;45.534;6.212;2023-07-20T04:48:28;98207.25;;;21.53;40.05
76660;BME280;65579;45.534;6.212;2023-07-20T04:50:53;98207.31;;;21.47;40.64
76660;BME280;65579;45.534;6.212;2023-07-20T04:53:19;98206.28;;;21.70;40.21
76660;BME280;65579;45.534;6.212;2023-07-20T04:55:48;98205.06;;;21.63;39.91
76660;BME280;65579;45.534;6.212;2023-07-20T04:58:09;98206.17;;;21.02;41.25
76660;BME280;65579;45.534;6.212;2023-07-20T05:00:34;98210.56;;;21.35;40.67
76660;BME280;65579;45.534;6.212;2023-07-20T05:02:59;98212.12;;;21.44;40.46
76660;BME280;65579;45.534;6.212;2023-07-20T05:05:24;98211.96;;;21.85;39.88
76660;BME280;65579;45.534;6.212;2023-07-20T05:07:50;98208.36;;;22.20;39.24
76660;BME280;65579;45.534;6.212;2023-07-20T05:10:16;98208.04;;;22.45;38.74
76660;BME280;65579;45.534;6.212;2023-07-20T05:12:42;98209.15;;;23.61;37.02
76660;BME280;65579;45.534;6.212;2023-07-20T05:15:08;98202.99;;;24.32;35.76
76660;BME280;65579;45.534;6.212;2023-07-20T05:17:33;98202.60;;;24.75;34.75
76660;BME280;65579;45.534;6.212;2023-07-20T05:19:59;98200.94;;;25.18;33.67
76660;BME280;65579;45.534;6.212;2023-07-20T05:22:25;98200.82;;;25.01;34.33
76660;BME280;65579;45.534;6.212;2023-07-20T05:24:50;98198.36;;;24.96;34.38
76660;BME280;65579;45.534;6.212;2023-07-20T05:27:16;98195.97;;;24.75;34.77
76660;BME280;65579;45.534;6.212;2023-07-20T05:29:44;98195.83;;;24.62;34.97
76660;BME280;65579;45.534;6.212;2023-07-20T05:32:08;98195.72;;;24.22;35.18
76660;BME280;65579;45.534;6.212;2023-07-20T05:34:33;98207.33;;;22.57;37.92
76660;BME280;65579;45.534;6.212;2023-07-20T05:36:59;98210.69;;;23.10;37.75
76660;BME280;65579;45.534;6.212;2023-07-20T05:39:25;98204.17;;;23.52;36.79
76660;BME280;65579;45.534;6.212;2023-07-20T05:41:51;98204.13;;;23.74;36.67
76660;BME280;65579;45.534;6.212;2023-07-20T05:44:17;98202.15;;;22.27;39.29
76660;BME280;65579;45.534;6.212;2023-07-20T05:46:43;98205.75;;;22.98;38.72
76660;BME280;65579;45.534;6.212;2023-07-20T05:49:08;98204.42;;;23.19;37.63
76660;BME280;65579;45.534;6.212;2023-07-20T05:51:34;98201.05;;;20.94;40.32
76660;BME280;65579;45.534;6.212;2023-07-20T05:54:00;98197.69;;;22.55;38.86
76660;BME280;65579;45.534;6.212;2023-07-20T05:56:26;98198.10;;;22.83;38.22
76660;BME280;65579;45.534;6.212;2023-07-20T05:58:51;98199.00;;;23.21;37.27
76660;BME280;65579;45.534;6.212;2023-07-20T06:01:17;98196.69;;;23.95;36.97
76660;BME280;65579;45.534;6.212;2023-07-20T06:03:43;98189.07;;;24.28;36.38
76660;BME280;65579;45.534;6.212;2023-07-20T06:06:09;98190.78;;;24.37;36.07
76660;BME280;65579;45.534;6.212;2023-07-20T06:08:35;98193.24;;;24.04;36.76
76660;BME280;65579;45.534;6.212;2023-07-20T06:11:01;98196.20;;;23.86;36.12
76660;BME280;65579;45.534;6.212;2023-07-20T06:13:27;98192.47;;;24.28;35.79
76660;BME280;65579;45.534;6.212;2023-07-20T06:15:52;98193.79;;;24.26;36.10
76660;BME280;65579;45.534;6.212;2023-07-20T06:18:18;98195.79;;;24.46;35.11
76660;BME280;65579;45.534;6.212;2023-07-20T06:20:49;98198.07;;;24.53;35.01
76660;BME280;65579;45.534;6.212;2023-07-20T06:23:10;98198.44;;;23.90;36.18
76660;BME280;65579;45.534;6.212;2023-07-20T06:25:36;98197.38;;;23.51;37.37
76660;BME280;65579;45.534;6.212;2023-07-20T06:28:01;98187.35;;;24.32;36.38
76660;BME280;65579;45.534;6.212;2023-07-20T06:30:27;98191.89;;;24.53;35.37
76660;BME280;65579;45.534;6.212;2023-07-20T06:32:53;98190.47;;;24.02;35.29
76660;BME280;65579;45.534;6.212;2023-07-20T06:35:19;98192.82;;;23.73;35.73
76660;BME280;65579;45.534;6.212;2023-07-20T06:37:44;98185.17;;;23.86;35.26
76660;BME280;65579;45.534;6.212;2023-07-20T06:40:10;98192.49;;;23.16;37.28
76660;BME280;65579;45.534;6.212;2023-07-20T06:42:35;98187.57;;;23.51;36.22
76660;BME280;65579;45.534;6.212;2023-07-20T06:45:02;98181.19;;;24.54;34.16
76660;BME280;65579;45.534;6.212;2023-07-20T06:47:27;98178.82;;;24.54;34.71
76660;BME280;65579;45.534;6.212;2023-07-20T06:49:53;98176.34;;;24.67;34.04
76660;BME280;65579;45.534;6.212;2023-07-20T06:52:19;98174.34;;;24.81;34.18
76660;BME280;65579;45.534;6.212;2023-07-20T06:54:44;98171.04;;;25.59;33.08
76660;BME280;65579;45.534;6.212;2023-07-20T06:57:10;98165.86;;;25.64;32.94
76660;BME280;65579;45.534;6.212;2023-07-20T06:59:35;98165.75;;;24.38;34.69
76660;BME280;65579;45.534;6.212;2023-07-20T07:02:01;98157.96;;;24.74;33.91
76660;BME280;65579;45.534;6.212;2023-07-20T07:04:27;98153.10;;;25.51;33.13
76660;BME280;65579;45.534;6.212;2023-07-20T07:06:52;98150.10;;;25.53;33.47
76660;BME280;65579;45.534;6.212;2023-07-20T07:09:19;98149.42;;;24.61;34.00
76660;BME280;65579;45.534;6.212;2023-07-20T07:11:44;98147.40;;;25.43;32.40
76660;BME280;65579;45.534;6.212;2023-07-20T07:14:09;98149.27;;;25.18;33.68
76660;BME280;65579;45.534;6.212;2023-07-20T07:16:35;98147.55;;;25.55;33.15
76660;BME280;65579;45.534;6.212;2023-07-20T07:19:01;98148.81;;;25.75;32.83
76660;BME280;65579;45.534;6.212;2023-07-20T07:21:27;98149.24;;;26.18;32.09
76660;BME280;65579;45.534;6.212;2023-07-20T07:23:52;98149.62;;;25.64;32.96
76660;BME280;65579;45.534;6.212;2023-07-20T07:26:18;98144.73;;;26.10;32.35
76660;BME280;65579;45.534;6.212;2023-07-20T07:28:43;98149.25;;;26.02;32.49
76660;BME280;65579;45.534;6.212;2023-07-20T07:31:09;98144.24;;;25.76;32.63
76660;BME280;65579;45.534;6.212;2023-07-20T07:33:35;98143.30;;;26.16;31.59
76660;BME280;65579;45.534;6.212;2023-07-20T07:36:01;98141.01;;;26.40;31.38
76660;BME280;65579;45.534;6.212;2023-07-20T07:38:26;98139.82;;;26.89;30.73
76660;BME280;65579;45.534;6.212;2023-07-20T07:40:52;98137.73;;;26.58;30.97
76660;BME280;65579;45.534;6.212;2023-07-20T07:43:18;98135.19;;;26.17;31.48
76660;BME280;65579;45.534;6.212;2023-07-20T07:45:44;98133.73;;;26.18;32.19
76660;BME280;65579;45.534;6.212;2023-07-20T07:48:09;98126.04;;;26.25;31.23
76660;BME280;65579;45.534;6.212;2023-07-20T07:50:35;98127.04;;;26.16;31.07
76660;BME280;65579;45.534;6.212;2023-07-20T07:53:01;98127.10;;;25.11;32.33
76660;BME280;65579;45.534;6.212;2023-07-20T07:55:27;98126.94;;;25.54;31.16
76660;BME280;65579;45.534;6.212;2023-07-20T07:57:52;98124.61;;;26.27;31.20
76660;BME280;65579;45.534;6.212;2023-07-20T08:00:19;98118.18;;;25.69;31.37
76660;BME280;65579;45.534;6.212;2023-07-20T08:02:44;98115.44;;;24.81;32.34
76660;BME280;65579;45.534;6.212;2023-07-20T08:05:10;98113.25;;;25.92;30.37
76660;BME280;65579;45.534;6.212;2023-07-20T08:07:35;98111.33;;;25.47;31.16
76660;BME280;65579;45.534;6.212;2023-07-20T08:10:01;98106.58;;;25.23;32.30
76660;BME280;65579;45.534;6.212;2023-07-20T08:12:27;98103.14;;;25.31;31.57
76660;BME280;65579;45.534;6.212;2023-07-20T08:14:53;98110.01;;;24.36;33.15
76660;BME280;65579;45.534;6.212;2023-07-20T08:17:18;98107.28;;;24.60;32.87
76660;BME280;65579;45.534;6.212;2023-07-20T08:19:44;98107.32;;;24.28;32.98
76660;BME280;65579;45.534;6.212;2023-07-20T08:22:10;98104.59;;;25.00;33.81
76660;BME280;65579;45.534;6.212;2023-07-20T08:24:39;98102.46;;;24.72;32.71
76660;BME280;65579;45.534;6.212;2023-07-20T08:27:01;98095.65;;;23.30;34.81
76660;BME280;65579;45.534;6.212;2023-07-20T08:29:27;98091.19;;;25.06;32.03
76660;BME280;65579;45.534;6.212;2023-07-20T08:31:52;98089.04;;;25.86;31.31
76660;BME280;65579;45.534;6.212;2023-07-20T08:34:18;98086.49;;;25.69;29.59
76660;BME280;65579;45.534;6.212;2023-07-20T08:36:44;98084.55;;;25.39;31.87
76660;BME280;65579;45.534;6.212;2023-07-20T08:39:09;98079.17;;;25.26;31.33
76660;BME280;65579;45.534;6.212;2023-07-20T08:41:35;98077.05;;;24.93;31.34
76660;BME280;65579;45.534;6.212;2023-07-20T08:44:01;98076.54;;;24.59;33.78
76660;BME280;65579;45.534;6.212;2023-07-20T08:46:27;98073.39;;;23.87;33.83
76660;BME280;65579;45.534;6.212;2023-07-20T08:48:52;98071.57;;;23.69;33.10
76660;BME280;65579;45.534;6.212;2023-07-20T08:51:20;98068.52;;;24.66;31.34
76660;BME280;65579;45.534;6.212;2023-07-20T08:53:45;98069.15;;;23.83;33.35
76660;BME280;65579;45.534;6.212;2023-07-20T08:56:09;98065.62;;;24.70;32.92
76660;BME280;65579;45.534;6.212;2023-07-20T08:58:35;98058.29;;;25.46;30.84
76660;BME280;65579;45.534;6.212;2023-07-20T09:01:01;98054.00;;;25.09;32.41
76660;BME280;65579;45.534;6.212;2023-07-20T09:03:26;98053.45;;;24.70;33.68
76660;BME280;65579;45.534;6.212;2023-07-20T09:05:52;98052.16;;;26.12;31.46
76660;BME280;65579;45.534;6.212;2023-07-20T09:08:17;98045.86;;;25.19;31.57
76660;BME280;65579;45.534;6.212;2023-07-20T09:10:43;98043.08;;;24.96;31.48
76660;BME280;65579;45.534;6.212;2023-07-20T09:13:08;98038.12;;;25.01;31.69
76660;BME280;65579;45.534;6.212;2023-07-20T09:15:34;98037.46;;;24.39;32.23
76660;BME280;65579;45.534;6.212;2023-07-20T09:18:02;98036.77;;;25.53;32.12
76660;BME280;65579;45.534;6.212;2023-07-20T09:20:26;98033.63;;;26.19;30.63
76660;BME280;65579;45.534;6.212;2023-07-20T09:22:51;98032.19;;;25.58;30.94
76660;BME280;65579;45.534;6.212;2023-07-20T09:25:18;98026.53;;;25.95;30.49
76660;BME280;65579;45.534;6.212;2023-07-20T09:27:44;98022.15;;;24.41;32.33
76660;BME280;65579;45.534;6.212;2023-07-20T09:30:09;98018.53;;;23.85;33.82
76660;BME280;65579;45.534;6.212;2023-07-20T09:32:39;98013.52;;;25.09;32.77
76660;BME280;65579;45.534;6.212;2023-07-20T09:35:00;98011.05;;;25.76;30.62
76660;BME280;65579;45.534;6.212;2023-07-20T09:37:25;98005.17;;;25.24;31.79
76660;BME280;65579;45.534;6.212;2023-07-20T09:39:52;98000.79;;;24.98;33.08
76660;BME280;65579;45.534;6.212;2023-07-20T09:42:17;97996.44;;;26.26;31.45
76660;BME280;65579;45.534;6.212;2023-07-20T09:44:44;97998.03;;;26.01;31.32
76660;BME280;65579;45.534;6.212;2023-07-20T09:47:08;97994.80;;;26.84;29.92
76660;BME280;65579;45.534;6.212;2023-07-20T09:49:39;97992.25;;;26.36;30.10
76660;BME280;65579;45.534;6.212;2023-07-20T09:52:00;97991.78;;;25.50;31.37
76660;BME280;65579;45.534;6.212;2023-07-20T09:54:27;97988.05;;;25.84;30.36
76660;BME280;65579;45.534;6.212;2023-07-20T09:56:51;97983.60;;;26.52;30.16
76660;BME280;65579;45.534;6.212;2023-07-20T09:59:16;97978.41;;;26.43;28.85
76660;BME280;65579;45.534;6.212;2023-07-20T10:01:43;97981.16;;;25.47;29.16
76660;BME280;65579;45.534;6.212;2023-07-20T10:04:09;97977.90;;;26.00;28.98
76660;BME280;65579;45.534;6.212;2023-07-20T10:06:35;97968.90;;;26.56;28.65
76660;BME280;65579;45.534;6.212;2023-07-20T10:09:02;97965.49;;;26.98;28.88
76660;BME280;65579;45.534;6.212;2023-07-20T10:11:29;97967.25;;;25.67;29.74
76660;BME280;65579;45.534;6.212;2023-07-20T10:13:52;97960.86;;;26.63;29.33
76660;BME280;65579;45.534;6.212;2023-07-20T10:16:22;97961.55;;;25.74;30.35
76660;BME280;65579;45.534;6.212;2023-07-20T10:18:46;97958.66;;;24.93;31.27
76660;BME280;65579;45.534;6.212;2023-07-20T10:21:07;97953.76;;;25.28;31.76
76660;BME280;65579;45.534;6.212;2023-07-20T10:23:33;97951.74;;;25.50;30.73
76660;BME280;65579;45.534;6.212;2023-07-20T10:25:58;97944.73;;;25.19;31.60
76660;BME280;65579;45.534;6.212;2023-07-20T10:28:24;97940.52;;;26.61;29.34
76660;BME280;65579;45.534;6.212;2023-07-20T10:30:49;97942.12;;;25.66;30.12
76660;BME280;65579;45.534;6.212;2023-07-20T10:33:15;97937.62;;;26.19;28.97
76660;BME280;65579;45.534;6.212;2023-07-20T10:35:51;97930.30;;;27.23;27.74
76660;BME280;65579;45.534;6.212;2023-07-20T10:38:06;97928.08;;;27.37;27.89
76660;BME280;65579;45.534;6.212;2023-07-20T10:40:33;97924.99;;;27.13;27.67
76660;BME280;65579;45.534;6.212;2023-07-20T10:42:59;97918.43;;;27.53;27.99
76660;BME280;65579;45.534;6.212;2023-07-20T10:45:36;97918.87;;;27.15;29.01
76660;BME280;65579;45.534;6.212;2023-07-20T10:47:49;97917.39;;;26.32;29.98
76660;BME280;65579;45.534;6.212;2023-07-20T10:50:14;97913.11;;;26.75;29.19
76660;BME280;65579;45.534;6.212;2023-07-20T10:52:40;97905.56;;;26.04;29.53
76660;BME280;65579;45.534;6.212;2023-07-20T10:55:10;97910.04;;;25.78;30.11
76660;BME280;65579;45.534;6.212;2023-07-20T10:57:32;97899.60;;;26.84;27.98
76660;BME280;65579;45.534;6.212;2023-07-20T11:00:08;97895.70;;;26.22;30.43
76660;BME280;65579;45.534;6.212;2023-07-20T11:02:25;97895.19;;;26.16;29.69
76660;BME280;65579;45.534;6.212;2023-07-20T11:04:48;97893.25;;;26.70;30.49
76660;BME280;65579;45.534;6.212;2023-07-20T11:07:16;97888.36;;;26.60;28.55
76660;BME280;65579;45.534;6.212;2023-07-20T11:09:39;97885.07;;;27.45;29.35
76660;BME280;65579;45.534;6.212;2023-07-20T11:12:10;97880.42;;;27.91;26.98
76660;BME280;65579;45.534;6.212;2023-07-20T11:14:30;97879.77;;;26.68;28.96
76660;BME280;65579;45.534;6.212;2023-07-20T11:16:56;97880.58;;;27.14;28.22
76660;BME280;65579;45.534;6.212;2023-07-20T11:19:23;97878.36;;;27.12;28.55
76660;BME280;65579;45.534;6.212;2023-07-20T11:21:50;97878.00;;;25.97;28.92
76660;BME280;65579;45.534;6.212;2023-07-20T11:24:13;97876.86;;;26.58;29.64
76660;BME280;65579;45.534;6.212;2023-07-20T11:26:43;97871.98;;;27.68;29.59
76660;BME280;65579;45.534;6.212;2023-07-20T11:29:04;97868.68;;;26.43;29.96
76660;BME280;65579;45.534;6.212;2023-07-20T11:31:30;97862.93;;;27.53;26.89
76660;BME280;65579;45.534;6.212;2023-07-20T11:33:56;97864.08;;;27.48;28.15
76660;BME280;65579;45.534;6.212;2023-07-20T11:36:22;97862.09;;;25.98;30.40
76660;BME280;65579;45.534;6.212;2023-07-20T11:38:47;97861.83;;;27.49;28.87
76660;BME280;65579;45.534;6.212;2023-07-20T11:41:13;97859.75;;;26.45;29.78
76660;BME280;65579;45.534;6.212;2023-07-20T11:43:39;97854.33;;;25.70;30.32
76660;BME280;65579;45.534;6.212;2023-07-20T11:46:05;97854.71;;;25.76;30.48
76660;BME280;65579;45.534;6.212;2023-07-20T11:48:29;97850.14;;;27.41;29.68
76660;BME280;65579;45.534;6.212;2023-07-20T11:50:55;97846.56;;;27.57;27.99
76660;BME280;65579;45.534;6.212;2023-07-20T11:53:21;97844.31;;;27.30;28.76
76660;BME280;65579;45.534;6.212;2023-07-20T11:55:46;97839.06;;;26.40;30.74
76660;BME280;65579;45.534;6.212;2023-07-20T11:58:12;97837.27;;;26.41;29.63
76660;BME280;65579;45.534;6.212;2023-07-20T12:00:38;97832.73;;;27.40;29.10
76660;BME280;65579;45.534;6.212;2023-07-20T12:03:06;97827.94;;;26.34;29.75
76660;BME280;65579;45.534;6.212;2023-07-20T12:05:28;97829.71;;;27.44;30.45
76660;BME280;65579;45.534;6.212;2023-07-20T12:07:54;97827.11;;;27.05;28.20
76660;BME280;65579;45.534;6.212;2023-07-20T12:10:25;97820.31;;;27.83;28.37
76660;BME280;65579;45.534;6.212;2023-07-20T12:12:45;97818.75;;;26.79;29.39
76660;BME280;65579;45.534;6.212;2023-07-20T12:15:15;97817.30;;;27.73;28.88
76660;BME280;65579;45.534;6.212;2023-07-20T12:17:43;97812.20;;;27.29;27.66
76660;BME280;65579;45.534;6.212;2023-07-20T12:20:02;97814.04;;;27.00;28.08
76660;BME280;65579;45.534;6.212;2023-07-20T12:22:27;97809.67;;;27.45;26.85
76660;BME280;65579;45.534;6.212;2023-07-20T12:24:53;97806.00;;;27.59;27.39
76660;BME280;65579;45.534;6.212;2023-07-20T12:27:19;97803.65;;;27.52;27.19
76660;BME280;65579;45.534;6.212;2023-07-20T12:29:44;97802.56;;;27.54;27.32
76660;BME280;65579;45.534;6.212;2023-07-20T12:32:10;97801.47;;;26.51;26.79
76660;BME280;65579;45.534;6.212;2023-07-20T12:34:35;97798.38;;;26.25;27.34
76660;BME280;65579;45.534;6.212;2023-07-20T12:37:03;97791.86;;;27.73;26.75
76660;BME280;65579;45.534;6.212;2023-07-20T12:39:27;97796.91;;;28.23;27.45
76660;BME280;65579;45.534;6.212;2023-07-20T12:41:52;97794.32;;;27.45;27.96
76660;BME280;65579;45.534;6.212;2023-07-20T12:44:17;97791.90;;;28.56;27.37
76660;BME280;65579;45.534;6.212;2023-07-20T12:46:43;97792.84;;;28.00;27.88
76660;BME280;65579;45.534;6.212;2023-07-20T12:49:09;97787.73;;;28.40;27.58
76660;BME280;65579;45.534;6.212;2023-07-20T12:51:34;97781.48;;;28.10;27.61
76660;BME280;65579;45.534;6.212;2023-07-20T12:54:00;97777.90;;;27.91;28.48
76660;BME280;65579;45.534;6.212;2023-07-20T12:56:26;97777.54;;;28.66;28.91